Time;durP1;ratioP1;P1;durP2;ratioP2;P2;SDS_P1;SDS_P2;PMS_P1;PMS_P2;Temp;Humidity;BMP_temperature;BMP_pressure;BME280_temperature;BME280_humidity;BME280_pressure;Samples;Min_cycle;Max_cycle;Signal;HPM_P1;HPM_P2
2022/06/11 00:00:23;;;;;;;8.93;4.35;;;;;;;19.41;81.79;100183.00;5018485;28;20118;-72
2022/06/11 00:02:49;;;;;;;6.88;4.35;;;;;;;19.41;81.98;100180.34;5010351;28;20060;-72
2022/06/11 00:05:21;;;;;;;9.63;5.82;;;;;;;19.43;81.54;100172.28;5011818;28;20029;-71
2022/06/11 00:07:47;;;;;;;6.77;4.10;;;;;;;19.60;81.19;100169.81;4997505;28;20056;-73
2022/06/11 00:10:14;;;;;;;24.73;4.88;;;;;;;18.86;82.01;100094.75;5015974;28;20045;-73
2022/06/11 00:12:39;;;;;;;11.65;5.20;;;;;;;19.19;81.74;100129.75;5011628;28;20050;-72
2022/06/11 00:15:07;;;;;;;8.55;5.40;;;;;;;19.18;82.88;100152.00;5016203;28;20499;-72
2022/06/11 00:17:33;;;;;;;9.15;4.65;;;;;;;18.82;82.80;100094.00;5028580;28;20099;-72
2022/06/11 00:19:59;;;;;;;9.07;4.75;;;;;;;18.79;83.19;100096.78;5008884;28;20120;-71
2022/06/11 00:22:25;;;;;;;10.63;6.00;;;;;;;18.75;83.20;100084.50;5036667;28;20041;-71
2022/06/11 00:24:51;;;;;;;11.60;4.32;;;;;;;18.95;84.08;100150.22;5036597;28;20045;-71
2022/06/11 00:27:18;;;;;;;6.00;4.80;;;;;;;18.73;83.72;100086.34;5039286;28;20471;-72
2022/06/11 00:29:44;;;;;;;9.73;4.20;;;;;;;19.28;83.94;100166.66;5037563;28;20053;-71
2022/06/11 00:32:12;;;;;;;6.28;4.00;;;;;;;19.46;83.04;100164.19;5035636;28;20111;-71
2022/06/11 00:34:41;;;;;;;13.05;4.80;;;;;;;19.11;83.03;100098.16;5030230;28;20049;-72
2022/06/11 00:37:09;;;;;;;11.98;5.82;;;;;;;19.54;83.23;100157.59;5024012;28;20187;-72
2022/06/11 00:39:37;;;;;;;14.60;6.03;;;;;;;19.56;82.85;100162.88;5020874;28;20049;-72
2022/06/11 00:42:12;;;;;;;9.40;5.00;;;;;;;18.61;84.58;100097.44;5021677;28;20423;-71
2022/06/11 00:44:39;;;;;;;8.10;5.15;;;;;;;18.56;87.20;100150.78;5016629;28;20041;-72
2022/06/11 00:47:15;;;;;;;7.10;4.85;;;;;;;18.51;87.60;100158.06;5024767;28;20099;-71
2022/06/11 00:49:52;;;;;;;27.70;5.88;;;;;;;18.72;87.28;100164.38;5020186;28;20095;-72
2022/06/11 00:52:35;;;;;;;8.50;5.10;;;;;;;18.89;86.75;100159.28;5018524;28;20053;-71
2022/06/11 00:55:19;;;;;;;7.85;5.18;;;;;;;18.29;86.92;100099.53;5021890;28;20496;-72
2022/06/11 00:58:07;;;;;;;11.13;5.75;;;;;;;18.80;87.42;100172.97;5023008;28;20053;-72
2022/06/11 01:00:41;;;;;;;10.10;5.22;;;;;;;19.12;85.99;100166.38;5004857;28;20050;-71
2022/06/11 01:03:12;;;;;;;9.88;5.72;;;;;;;19.24;85.97;100172.16;5022175;28;20053;-72
2022/06/11 01:05:44;;;;;;;11.15;5.25;;;;;;;18.92;85.34;100113.13;5043223;28;20045;-71
2022/06/11 01:08:28;;;;;;;9.25;6.38;;;;;;;19.05;85.52;100148.06;5002813;28;20497;-71
2022/06/11 01:11:15;;;;;;;9.77;5.32;;;;;;;18.82;87.66;100165.78;5017747;28;20479;-74
2022/06/11 01:13:48;;;;;;;14.45;5.20;;;;;;;18.53;87.19;100106.59;5022689;28;20080;-72
2022/06/11 01:16:25;;;;;;;8.85;5.50;;;;;;;18.65;88.20;100174.34;5019802;28;20532;-72
2022/06/11 01:19:08;;;;;;;8.73;5.18;;;;;;;17.99;89.76;100097.06;5022448;28;20564;-71
2022/06/11 01:21:54;;;;;;;7.68;5.13;;;;;;;18.52;89.44;100163.31;5018920;28;20061;-72
2022/06/11 01:24:29;;;;;;;9.63;5.25;;;;;;;18.61;89.19;100172.72;5021370;28;20050;-71
2022/06/11 01:27:24;;;;;;;7.95;5.13;;;;;;;18.19;89.61;100112.28;5019781;28;20064;-71
2022/06/11 01:30:00;;;;;;;14.23;5.22;;;;;;;18.54;89.87;100166.78;5019884;28;20060;-71
2022/06/11 01:32:44;;;;;;;8.45;4.72;;;;;;;18.24;90.32;100118.31;5020366;28;20038;-72
2022/06/11 01:35:28;;;;;;;13.55;6.50;;;;;;;18.04;91.09;100107.53;5048477;28;20048;-72
2022/06/11 01:38:03;;;;;;;7.85;5.38;;;;;;;18.64;90.25;100167.31;5018727;28;20053;-73
2022/06/11 01:40:32;;;;;;;7.95;5.80;;;;;;;18.35;91.68;100173.69;5018683;28;20049;-71
2022/06/11 01:43:24;;;;;;;12.02;7.15;;;;;;;18.53;91.53;100174.81;5030129;28;20551;-71
2022/06/11 01:45:50;;;;;;;10.73;6.07;;;;;;;18.60;90.78;100180.78;5015141;28;20144;-71
2022/06/11 01:48:22;;;;;;;9.68;6.03;;;;;;;18.02;90.54;100096.94;5019483;28;20057;-71
2022/06/11 01:51:08;;;;;;;10.05;6.28;;;;;;;18.30;92.18;100167.66;5021803;28;20122;-72
2022/06/11 01:53:41;;;;;;;11.38;5.88;;;;;;;18.22;92.64;100164.44;5015615;28;20124;-72
2022/06/11 01:56:24;;;;;;;13.02;6.10;;;;;;;17.96;92.02;100093.63;5044560;28;20060;-72
2022/06/11 01:59:01;;;;;;;;;;;;;;;17.99;91.66;100093.56;5026768;28;20056;-71
2022/06/11 02:01:57;;;;;;;8.88;5.07;;;;;;;18.21;91.71;100114.88;5019359;28;19932;-71
2022/06/11 02:04:33;;;;;;;11.23;5.80;;;;;;;18.43;90.83;100149.50;5026720;28;20103;-72
2022/06/11 02:07:16;;;;;;;15.38;6.00;;;;;;;17.87;91.90;100098.38;5020853;28;20528;-71
2022/06/11 02:10:15;;;;;;;10.30;6.68;;;;;;;18.27;92.83;100175.75;5047085;28;20041;-72
2022/06/11 02:12:46;;;;;;;11.38;6.40;;;;;;;17.81;93.41;100111.84;5019778;28;20049;-72
2022/06/11 02:15:17;;;;;;;13.18;6.50;;;;;;;17.67;93.78;100101.66;5014691;28;20057;-72
2022/06/11 02:17:47;;;;;;;5.95;5.20;;;;;;;18.04;94.25;100172.09;5017984;28;20045;-71
2022/06/11 02:20:30;;;;;;;12.60;7.15;;;;;;;17.69;94.22;100115.75;5044544;28;20037;-73
2022/06/11 02:23:06;;;;;;;11.02;5.82;;;;;;;17.98;94.75;100174.09;5017858;28;20615;-71
2022/06/11 02:25:43;;;;;;;14.95;5.80;;;;;;;17.73;94.20;100098.81;5020009;28;20045;-72
2022/06/11 02:28:20;;;;;;;9.48;5.45;;;;;;;17.76;94.57;100107.59;5014511;28;20053;-71
2022/06/11 02:30:48;;;;;;;14.00;6.93;;;;;;;17.67;94.55;100104.31;5019657;28;20064;-71
2022/06/11 02:33:15;;;;;;;17.92;6.43;;;;;;;18.07;93.86;100161.38;5013105;28;20128;-73
2022/06/11 02:35:50;;;;;;;10.05;6.32;;;;;;;17.79;93.87;100105.69;5014074;28;20183;-72
2022/06/11 02:38:19;;;;;;;11.70;7.00;;;;;;;18.25;93.73;100183.78;5016354;28;20033;-72
2022/06/11 02:40:50;;;;;;;8.27;6.07;;;;;;;17.41;93.83;100051.28;5016554;28;20196;-72
2022/06/11 02:43:17;;;;;;;9.15;6.10;;;;;;;17.79;93.47;100120.75;5013595;28;20155;-71
2022/06/11 02:45:44;;;;;;;14.60;6.95;;;;;;;17.76;94.20;100140.31;5018145;28;20067;-72
2022/06/11 02:48:12;;;;;;;9.55;5.95;;;;;;;17.69;94.35;100106.94;5013298;28;20068;-72
2022/06/11 02:50:42;;;;;;;8.02;6.68;;;;;;;18.14;94.64;100196.56;5017370;28;20033;-72
2022/06/11 02:53:08;;;;;;;11.40;5.78;;;;;;;17.73;95.14;100145.72;5017538;28;20041;-71
2022/06/11 02:55:37;;;;;;;9.73;6.20;;;;;;;17.61;95.08;100138.19;5011596;28;20057;-72
2022/06/11 02:58:05;;;;;;;11.43;6.68;;;;;;;17.52;95.19;100131.38;5013326;28;20053;-72
2022/06/11 03:00:35;;;;;;;8.43;6.03;;;;;;;18.00;94.69;100175.78;5015365;28;20056;-72
2022/06/11 03:03:01;;;;;;;8.60;5.90;;;;;;;17.51;94.71;100129.63;5013926;28;20048;-72
2022/06/11 03:05:31;;;;;;;8.98;5.88;;;;;;;18.04;94.63;100195.16;5011000;28;20044;-72
2022/06/11 03:07:59;;;;;;;9.82;7.68;;;;;;;17.87;95.26;100207.19;5016486;28;20033;-72
2022/06/11 03:10:26;;;;;;;10.27;5.97;;;;;;;18.12;94.66;100233.81;5015255;28;20048;-72
2022/06/11 03:12:53;;;;;;;9.75;7.47;;;;;;;17.91;94.91;100214.16;4997203;28;20338;-71
2022/06/11 03:15:20;;;;;;;7.97;6.65;;;;;;;17.86;94.98;100207.25;5012687;28;20128;-71
2022/06/11 03:17:47;;;;;;;14.15;8.13;;;;;;;17.42;95.43;100154.69;5018690;28;20124;-72
2022/06/11 03:20:15;;;;;;;11.40;6.97;;;;;;;18.05;94.63;100212.78;5019830;28;20504;-72
2022/06/11 03:22:41;;;;;;;8.77;6.30;;;;;;;17.54;95.06;100142.81;5018669;28;20048;-72
2022/06/11 03:25:09;;;;;;;8.70;5.97;;;;;;;18.01;94.63;100208.53;5022793;28;20052;-72
2022/06/11 03:27:38;;;;;;;8.73;7.03;;;;;;;17.78;95.08;100193.34;5027498;28;22013;-73
2022/06/11 03:30:08;;;;;;;10.07;6.82;;;;;;;17.83;94.30;100160.44;5024989;28;20113;-72
2022/06/11 03:32:35;;;;;;;10.63;7.57;;;;;;;17.98;94.56;100180.31;5044879;28;21432;-71
2022/06/11 03:35:03;;;;;;;21.33;7.15;;;;;;;17.83;94.22;100160.44;5042951;28;20056;-72
2022/06/11 03:37:28;;;;;;;9.95;7.13;;;;;;;18.17;94.26;100230.09;5020550;28;20049;-72
2022/06/11 03:39:54;;;;;;;10.65;7.28;;;;;;;17.78;93.74;100153.53;5014899;28;20037;-72
2022/06/11 03:42:20;;;;;;;11.00;7.70;;;;;;;17.74;93.95;100147.44;5016445;28;20574;-72
2022/06/11 03:44:45;;;;;;;11.65;7.75;;;;;;;18.21;94.39;100221.13;5020689;28;20555;-72
2022/06/11 03:47:11;;;;;;;12.25;6.95;;;;;;;18.31;93.14;100223.41;5017326;28;20048;-71
2022/06/11 03:49:37;;;;;;;9.60;6.78;;;;;;;18.19;93.54;100225.59;5048518;28;20053;-72
2022/06/11 03:52:08;;;;;;;9.68;7.40;;;;;;;18.04;93.79;100213.72;5030996;28;20056;-72
2022/06/11 03:54:35;;;;;;;9.48;7.07;;;;;;;18.11;93.51;100207.28;5022668;28;20045;-72
2022/06/11 03:57:00;;;;;;;12.05;7.85;;;;;;;18.24;93.58;100219.22;5014655;28;20055;-72
2022/06/11 03:59:27;;;;;;;11.77;8.98;;;;;;;17.67;93.77;100148.56;5005748;28;20056;-72
2022/06/11 04:01:52;;;;;;;13.25;8.50;;;;;;;17.55;94.55;100152.50;5043075;28;21460;-71
2022/06/11 04:04:20;;;;;;;9.20;7.40;;;;;;;18.12;94.37;100222.28;5013520;28;20604;-71
2022/06/11 04:06:50;;;;;;;8.35;6.82;;;;;;;17.83;93.73;100165.75;5017818;28;20464;-71
2022/06/11 04:09:27;;;;;;;10.25;7.35;;;;;;;18.21;92.96;100187.44;5017500;28;20053;-72
2022/06/11 04:11:54;;;;;;;12.90;7.82;;;;;;;17.80;92.85;100143.72;5018384;28;20076;-72
2022/06/11 04:14:20;;;;;;;11.25;7.20;;;;;;;17.92;93.63;100173.41;5023852;28;20047;-72
2022/06/11 04:16:58;;;;;;;8.95;7.68;;;;;;;17.88;93.06;100154.97;5022457;28;20050;-72
2022/06/11 04:19:36;;;;;;;13.77;8.90;;;;;;;18.03;93.08;100206.69;5022983;28;20680;-72
2022/06/11 04:22:03;;;;;;;11.73;8.18;;;;;;;18.25;93.24;100215.66;5019188;28;20057;-72
2022/06/11 04:24:30;;;;;;;12.80;7.93;;;;;;;17.96;93.51;100166.22;5014497;28;20045;-72
2022/06/11 04:27:00;;;;;;;9.48;7.80;;;;;;;18.07;92.33;100179.97;5018793;28;20052;-72
2022/06/11 04:29:29;;;;;;;10.52;6.80;;;;;;;18.12;91.83;100171.84;5021417;28;20041;-73
2022/06/11 04:31:59;;;;;;;8.48;6.75;;;;;;;18.32;92.71;100246.38;5019812;28;20049;-72
2022/06/11 04:34:28;;;;;;;9.85;6.85;;;;;;;18.47;92.91;100241.44;5054150;28;20053;-72
2022/06/11 04:36:54;;;;;;;10.50;6.68;;;;;;;17.89;93.16;100177.97;5023010;28;20045;-71
2022/06/11 04:39:24;;;;;;;12.02;8.95;;;;;;;18.57;92.62;100250.84;5017002;28;20053;-72
2022/06/11 04:41:52;;;;;;;12.25;7.50;;;;;;;18.27;91.54;100173.09;5024952;28;20092;-71
2022/06/11 04:44:18;;;;;;;12.30;7.97;;;;;;;18.58;91.21;100217.16;5023414;28;20473;-71
2022/06/11 04:46:44;;;;;;;13.70;7.25;;;;;;;18.78;91.06;100227.97;5022445;28;20048;-72
2022/06/11 04:49:11;;;;;;;9.32;6.93;;;;;;;19.28;90.10;100240.28;5015339;28;20042;-71
2022/06/11 04:51:36;;;;;;;12.25;8.30;;;;;;;19.18;89.39;100224.66;5019857;28;21456;-71
2022/06/11 04:54:02;;;;;;;14.10;6.50;;;;;;;19.35;88.83;100247.09;5012058;28;20056;-71
2022/06/11 04:56:31;;;;;;;8.45;6.20;;;;;;;19.33;88.41;100219.69;5043780;28;20653;-71
2022/06/11 04:58:58;;;;;;;9.90;8.43;;;;;;;19.11;88.95;100260.41;5026645;28;20033;-72
2022/06/11 05:01:26;;;;;;;11.23;7.00;;;;;;;19.38;88.44;100254.94;5023096;28;20053;-73
2022/06/11 05:03:53;;;;;;;8.30;6.90;;;;;;;18.53;88.34;100119.00;5027365;28;20045;-72
2022/06/11 05:06:21;;;;;;;9.30;7.47;;;;;;;18.97;89.36;100254.75;5018409;28;20061;-72
2022/06/11 05:08:49;;;;;;;11.25;8.05;;;;;;;18.90;90.33;100258.56;5017780;28;20089;-72
2022/06/11 05:11:14;;;;;;;13.63;8.65;;;;;;;18.88;90.24;100253.28;5021703;28;20684;-73
2022/06/11 05:13:40;;;;;;;14.57;7.50;;;;;;;18.35;91.23;100214.41;5026488;28;20049;-72
2022/06/11 05:16:08;;;;;;;15.32;9.32;;;;;;;18.39;90.95;100185.94;5020588;28;20132;-73
2022/06/11 05:18:36;;;;;;;14.38;8.75;;;;;;;18.48;91.58;100243.19;5001468;28;20041;-73
2022/06/11 05:21:03;;;;;;;14.40;8.80;;;;;;;18.44;91.18;100197.25;5024991;28;20050;-72
2022/06/11 05:23:30;;;;;;;13.50;8.15;;;;;;;18.62;90.26;100178.94;5018633;28;20064;-73
2022/06/11 05:25:56;;;;;;;13.15;8.07;;;;;;;18.84;89.26;100201.13;5055665;28;20171;-72
2022/06/11 05:28:27;;;;;;;10.30;7.78;;;;;;;19.27;88.20;100263.38;5020084;28;20057;-73
2022/06/11 05:30:56;;;;;;;12.57;6.80;;;;;;;18.72;88.84;100206.88;5019541;28;20521;-73
2022/06/11 05:33:25;;;;;;;8.35;7.22;;;;;;;18.94;88.11;100218.50;5019473;28;20056;-73
2022/06/11 05:35:52;;;;;;;15.85;8.30;;;;;;;19.20;88.18;100288.47;5018758;28;20049;-73
2022/06/11 05:38:22;;;;;;;10.85;7.72;;;;;;;19.05;87.92;100257.97;5024422;28;20041;-72
2022/06/11 05:40:50;;;;;;;9.98;7.13;;;;;;;18.84;87.29;100216.22;5019799;28;20042;-72
2022/06/11 05:43:17;;;;;;;11.75;7.47;;;;;;;19.36;86.88;100300.25;5024396;28;20079;-72
2022/06/11 05:45:54;;;;;;;15.35;7.55;;;;;;;19.33;86.64;100283.53;5016613;28;20041;-72
2022/06/11 05:48:25;;;;;;;14.45;6.82;;;;;;;18.61;87.42;100235.66;5021530;28;20049;-72
2022/06/11 05:50:54;;;;;;;10.02;6.43;;;;;;;18.61;86.88;100238.31;5019772;28;20155;-72
2022/06/11 05:53:23;;;;;;;14.18;7.32;;;;;;;19.04;86.12;100293.47;5048280;28;20041;-74
2022/06/11 05:55:50;;;;;;;10.13;7.35;;;;;;;18.99;85.16;100213.00;5023504;28;20037;-72
2022/06/11 05:58:23;;;;;;;7.95;6.38;;;;;;;19.54;84.62;100293.34;5035708;28;20065;-73
2022/06/11 06:00:49;;;;;;;10.60;6.47;;;;;;;19.52;84.37;100283.69;5008403;28;20064;-73
2022/06/11 06:03:15;;;;;;;10.23;5.88;;;;;;;19.59;84.13;100307.34;5019046;28;20079;-72
2022/06/11 06:05:41;;;;;;;8.48;5.30;;;;;;;18.84;84.32;100229.53;5021063;28;20049;-72
2022/06/11 06:08:08;;;;;;;9.43;6.05;;;;;;;19.58;83.29;100310.06;5023850;28;20110;-73
2022/06/11 06:10:34;;;;;;;10.05;6.97;;;;;;;19.37;82.50;100219.50;5011816;28;20067;-72
2022/06/11 06:13:00;;;;;;;13.10;7.45;;;;;;;19.60;82.49;100241.69;5015611;28;20131;-72
2022/06/11 06:15:27;;;;;;;19.70;8.50;;;;;;;19.46;81.84;100207.63;5021957;28;20079;-72
2022/06/11 06:17:53;;;;;;;8.63;5.93;;;;;;;20.07;81.12;100307.28;5018224;28;20077;-72
2022/06/11 06:20:21;;;;;;;13.40;6.05;;;;;;;19.70;81.58;100300.78;5016188;28;20044;-73
2022/06/11 06:22:47;;;;;;;11.48;4.78;;;;;;;20.05;81.13;100295.81;5018711;28;20057;-72
2022/06/11 06:25:17;;;;;;;9.35;4.25;;;;;;;20.23;79.96;100321.72;5016313;28;20051;-72
2022/06/11 06:27:43;;;;;;;9.02;6.07;;;;;;;20.22;78.61;100256.88;5015070;28;20103;-72
2022/06/11 06:30:09;;;;;;;7.95;4.93;;;;;;;20.74;78.30;100309.75;5019407;28;20053;-72
2022/06/11 06:32:35;;;;;;;12.13;6.22;;;;;;;20.36;78.22;100239.44;5019951;28;20037;-73
2022/06/11 06:35:01;;;;;;;16.35;7.43;;;;;;;20.15;78.23;100236.75;5015913;28;20045;-73
2022/06/11 06:37:27;;;;;;;6.60;5.20;;;;;;;20.18;78.65;100265.06;5012316;28;21160;-73
2022/06/11 06:39:53;;;;;;;9.43;5.80;;;;;;;20.34;77.61;100239.50;5013812;28;20476;-73
2022/06/11 06:42:19;;;;;;;9.45;5.32;;;;;;;20.75;77.21;100314.19;5014693;28;20048;-73
2022/06/11 06:44:45;;;;;;;9.68;5.50;;;;;;;20.52;77.41;100252.97;5016216;28;20075;-73
2022/06/11 06:47:11;;;;;;;13.95;6.63;;;;;;;20.63;77.51;100326.25;5022614;28;20037;-73
2022/06/11 06:49:37;;;;;;;8.48;5.88;;;;;;;20.51;77.60;100313.44;5010402;28;20610;-72
2022/06/11 06:52:03;;;;;;;9.48;6.20;;;;;;;20.41;77.63;100285.41;5015962;28;20135;-72
2022/06/11 06:54:29;;;;;;;16.27;8.50;;;;;;;20.80;78.03;100324.66;5015564;28;20727;-73
2022/06/11 06:56:54;;;;;;;9.35;5.68;;;;;;;20.82;78.75;100320.13;5018842;28;20173;-73
2022/06/11 06:59:20;;;;;;;13.13;8.63;;;;;;;20.80;77.55;100338.84;5018220;28;20045;-72
2022/06/11 07:01:47;;;;;;;12.90;7.05;;;;;;;20.94;76.94;100332.06;5009690;28;20477;-73
2022/06/11 07:04:13;;;;;;;6.35;4.72;;;;;;;20.94;77.29;100338.25;5025911;28;20060;-73
2022/06/11 07:06:40;;;;;;;14.35;8.02;;;;;;;20.47;76.87;100263.84;5028957;28;20037;-72
2022/06/11 07:09:07;;;;;;;7.43;4.75;;;;;;;20.97;77.49;100338.09;5013507;28;20061;-80
2022/06/11 07:11:33;;;;;;;10.02;6.82;;;;;;;20.35;78.28;100253.72;5026884;28;20048;-83
2022/06/11 07:13:59;;;;;;;17.00;6.57;;;;;;;20.93;78.17;100332.97;5029780;28;20041;-85
2022/06/11 07:16:39;;;;;;;11.98;5.75;;;;;;;20.09;78.98;100263.66;5031494;28;20091;-84
2022/06/11 07:19:17;;;;;;;10.50;6.47;;;;;;;19.75;79.71;100274.81;5004250;28;20041;-87
2022/06/11 07:21:49;;;;;;;7.22;4.50;;;;;;;19.89;80.53;100339.03;5026613;28;20397;-79
2022/06/11 07:24:34;;;;;;;9.73;5.90;;;;;;;19.99;81.14;100344.88;5030506;28;20060;-78
2022/06/11 07:27:10;;;;;;;21.00;7.43;;;;;;;20.55;80.76;100339.00;5024865;28;20056;-87
2022/06/11 07:29:50;;;;;;;28.58;7.97;;;;;;;19.99;81.83;100316.47;5023053;28;20051;-80
2022/06/11 07:32:18;;;;;;;10.63;7.20;;;;;;;20.09;80.97;100338.25;5021213;28;20083;-88
2022/06/11 07:34:46;;;;;;;8.90;5.55;;;;;;;20.64;79.73;100343.97;5025229;28;20059;-84
2022/06/11 07:37:12;;;;;;;11.15;6.72;;;;;;;20.59;79.27;100350.44;5025058;28;20489;-83
2022/06/11 07:39:38;;;;;;;8.50;5.30;;;;;;;20.31;79.99;100358.69;5031293;28;20106;-84
2022/06/11 07:42:05;;;;;;;24.67;7.75;;;;;;;20.24;80.93;100320.78;5032144;28;20057;-82
2022/06/11 07:44:31;;;;;;;13.73;7.32;;;;;;;20.56;80.52;100364.78;5033110;28;20041;-80
2022/06/11 07:46:59;;;;;;;23.02;8.57;;;;;;;20.94;80.51;100362.25;5036475;28;20469;-81
2022/06/11 07:49:24;;;;;;;19.02;9.20;;;;;;;20.47;79.46;100285.16;5034545;28;20098;-82
2022/06/11 07:51:51;;;;;;;10.98;5.90;;;;;;;20.56;78.53;100291.94;5032937;28;20060;-83
2022/06/11 07:54:17;;;;;;;19.35;8.80;;;;;;;21.12;78.53;100352.59;5012168;28;20421;-78
2022/06/11 07:56:44;;;;;;;13.18;6.15;;;;;;;20.47;78.32;100292.28;5030356;28;20072;-82
2022/06/11 07:59:10;;;;;;;10.20;6.53;;;;;;;21.18;78.64;100376.31;5060532;28;20060;-90
2022/06/11 08:01:35;;;;;;;21.38;6.68;;;;;;;20.47;79.50;100309.16;5031222;28;20385;-83
2022/06/11 08:04:01;;;;;;;24.33;7.00;;;;;;;20.97;79.51;100337.25;5029040;28;20045;-81
2022/06/11 08:06:34;;;;;;;14.32;7.28;;;;;;;20.95;78.59;100321.28;5036469;28;20426;-84
2022/06/11 08:09:01;;;;;;;9.43;6.38;;;;;;;21.00;79.06;100354.00;5025472;28;20042;-86
2022/06/11 08:11:26;;;;;;;14.05;7.57;;;;;;;21.03;79.83;100353.00;5020898;28;20477;-86
2022/06/11 08:13:53;;;;;;;7.50;6.05;;;;;;;20.81;80.09;100353.03;5028530;28;20056;-82
2022/06/11 08:16:19;;;;;;;12.07;6.70;;;;;;;21.22;79.78;100366.38;5027901;28;20057;-84
2022/06/11 08:18:45;;;;;;;11.20;5.70;;;;;;;20.70;79.94;100309.97;5027863;28;20170;-82
2022/06/11 08:21:12;;;;;;;7.55;5.03;;;;;;;21.18;80.51;100370.09;5020882;28;20056;-82
2022/06/11 08:23:40;;;;;;;12.25;5.57;;;;;;;21.27;79.77;100365.22;5016985;28;20047;-83
2022/06/11 08:26:07;;;;;;;8.02;6.70;;;;;;;20.91;79.31;100301.03;5035836;28;20040;-84
2022/06/11 08:28:32;;;;;;;7.90;5.53;;;;;;;21.14;80.32;100373.84;5029993;28;20573;-79
2022/06/11 08:31:03;;;;;;;7.35;6.18;;;;;;;21.04;80.33;100368.91;5030132;28;20160;-81
2022/06/11 08:33:28;;;;;;;9.90;6.32;;;;;;;20.70;80.01;100332.19;5027707;28;20076;-81
2022/06/11 08:35:58;;;;;;;6.13;4.47;;;;;;;20.99;80.61;100381.59;5026465;28;20057;-80
2022/06/11 08:38:23;;;;;;;15.57;7.75;;;;;;;21.05;79.70;100384.00;5027748;28;20270;-83
2022/06/11 08:40:55;;;;;;;8.07;5.35;;;;;;;21.08;79.75;100361.66;5021365;28;20033;-82
2022/06/11 08:43:33;;;;;;;9.45;5.47;;;;;;;21.09;78.77;100374.03;5039618;28;20048;-81
2022/06/11 08:46:12;;;;;;;12.55;5.85;;;;;;;20.70;78.71;100313.53;5022300;28;20985;-79
2022/06/11 08:49:03;;;;;;;8.05;5.55;;;;;;;21.09;79.18;100368.69;5021940;28;20050;-80
2022/06/11 08:51:32;;;;;;;11.10;5.22;;;;;;;21.05;79.41;100349.31;5024597;28;20087;-80
2022/06/11 08:54:02;;;;;;;13.25;7.40;;;;;;;20.72;79.54;100303.66;5024386;28;20056;-81
2022/06/11 08:56:38;;;;;;;10.75;6.72;;;;;;;20.83;81.20;100365.38;5042074;28;20052;-81
2022/06/11 08:59:19;;;;;;;11.98;6.38;;;;;;;19.57;81.24;100168.16;5023537;28;20037;-81
2022/06/11 09:02:12;;;;;;;8.68;5.60;;;;;;;20.72;82.01;100341.00;5024300;28;20068;-80
2022/06/11 09:04:43;;;;;;;;;;;;;;;20.83;81.93;100312.03;5028612;28;20050;-80
2022/06/11 09:07:57;;;;;;;11.95;7.32;;;;;;;20.81;81.11;100289.03;5026306;28;19952;-80
2022/06/11 09:10:41;;;;;;;6.93;5.22;;;;;;;20.90;80.73;100303.78;5026420;28;20084;-79
2022/06/11 09:13:13;;;;;;;15.63;7.13;;;;;;;20.98;80.25;100323.84;5034273;28;20056;-80
2022/06/11 09:16:14;;;;;;;10.60;6.18;;;;;;;21.27;80.63;100373.22;5021192;28;20090;-80
2022/06/11 09:19:10;;;;;;;11.02;6.75;;;;;;;20.92;80.10;100320.56;5017451;28;20045;-81
2022/06/11 09:21:57;;;;;;;15.77;7.63;;;;;;;21.25;78.73;100379.56;5022997;28;20053;-81
2022/06/11 09:24:45;;;;;;;17.23;7.90;;;;;;;20.93;78.85;100322.28;5027238;28;20164;-79
2022/06/11 09:27:21;;;;;;;13.43;7.47;;;;;;;;;;5010747;28;20061;-79
2022/06/11 09:30:08;;;;;;;9.23;6.35;;;;;;;21.46;79.16;100364.41;5021191;28;20064;-81
2022/06/11 09:32:56;;;;;;;12.95;6.32;;;;;;;21.31;78.02;100330.41;5021186;28;20057;-79
2022/06/11 09:35:50;;;;;;;12.93;6.30;;;;;;;20.97;79.35;100300.75;5022390;28;20065;-79
2022/06/11 09:38:31;;;;;;;16.77;8.77;;;;;;;21.54;78.96;100364.06;5019166;28;20060;-81
2022/06/11 09:41:21;;;;;;;15.10;10.02;;;;;;;20.94;80.80;100300.91;5025225;28;20048;-81
2022/06/11 09:44:24;;;;;;;12.40;8.25;;;;;;;20.75;81.46;100287.50;5023547;28;20397;-81
2022/06/11 09:46:56;;;;;;;15.25;10.65;;;;;;;21.16;82.55;100366.63;5026620;28;20050;-81
2022/06/11 09:49:31;;;;;;;11.60;9.13;;;;;;;20.88;82.57;100325.16;5024403;28;20050;-81
2022/06/11 09:52:12;;;;;;;12.00;9.43;;;;;;;20.53;82.88;100303.53;5023807;28;20102;-79
2022/06/11 09:54:54;;;;;;;14.68;10.02;;;;;;;21.23;83.17;100358.28;5026216;28;20037;-80
2022/06/11 09:57:34;;;;;;;10.13;8.83;;;;;;;21.35;81.70;100353.31;5021586;28;20057;-82
2022/06/11 10:00:12;;;;;;;26.77;22.38;;;;;;;21.42;82.22;100360.16;5026257;28;20500;-81
2022/06/11 10:05:25;;;;;;;29.13;21.23;;;;;;;21.38;82.17;100354.06;5026833;28;20063;-80
2022/06/11 10:07:57;;;;;;;27.25;19.67;;;;;;;21.61;80.31;100349.47;5030082;28;20934;-80
2022/06/11 10:10:31;;;;;;;12.90;7.95;;;;;;;20.83;80.95;100346.69;5024511;28;20435;-80
2022/06/11 10:13:40;;;;;;;17.70;13.85;;;;;;;21.17;80.19;100336.38;5026060;28;20060;-81
2022/06/11 10:16:39;;;;;;;11.93;7.75;;;;;;;21.56;78.59;100351.50;5023627;28;20037;-81
2022/06/11 10:19:20;;;;;;;10.32;6.90;;;;;;;21.12;79.15;100333.00;5025052;28;20053;-80
2022/06/11 10:21:55;;;;;;;8.13;6.05;;;;;;;21.44;78.89;100340.44;5024480;28;20045;-81
2022/06/11 10:24:38;;;;;;;12.18;7.40;;;;;;;21.17;78.64;100307.88;5026208;28;20394;-81
2022/06/11 10:27:13;;;;;;;10.70;6.95;;;;;;;21.18;78.57;100314.94;5005317;28;20054;-80
2022/06/11 10:29:53;;;;;;;11.65;8.05;;;;;;;21.23;78.84;100338.72;5007089;28;20030;-82
2022/06/11 10:32:43;;;;;;;17.30;8.80;;;;;;;21.25;79.60;100344.88;5010023;28;20502;-81
2022/06/11 10:35:14;;;;;;;12.20;9.00;;;;;;;21.32;78.85;100334.78;5001803;28;20532;-80
2022/06/11 10:37:49;;;;;;;12.05;7.55;;;;;;;20.84;79.19;100271.09;5008946;28;20045;-80
2022/06/11 10:40:32;;;;;;;11.80;7.38;;;;;;;20.91;79.85;100270.81;5005474;28;20100;-81
2022/06/11 10:43:20;;;;;;;12.05;7.32;;;;;;;21.20;81.05;100329.06;5003509;28;20071;-81
2022/06/11 10:45:47;;;;;;;13.70;7.45;;;;;;;20.93;80.56;100279.63;5007505;28;20128;-81
2022/06/11 10:48:23;;;;;;;15.52;7.78;;;;;;;21.32;80.61;100324.13;5008545;28;21039;-81
2022/06/11 10:50:52;;;;;;;13.48;8.52;;;;;;;20.69;81.85;100250.44;5001741;28;20088;-81
2022/06/11 10:53:33;;;;;;;8.27;7.07;;;;;;;21.28;82.32;100334.06;5006565;28;20375;-80
2022/06/11 10:56:32;;;;;;;10.02;7.28;;;;;;;20.10;82.24;100136.66;5004488;28;20052;-81
2022/06/11 10:59:09;;;;;;;11.38;6.07;;;;;;;21.37;81.68;100327.44;5004572;28;20200;-81
2022/06/11 11:01:46;;;;;;;10.07;5.72;;;;;;;20.97;82.40;100258.06;5004125;28;20046;-80
2022/06/11 11:04:14;;;;;;;10.43;7.57;;;;;;;21.12;81.29;100282.31;5006487;28;20073;-81
2022/06/11 11:06:41;;;;;;;11.40;8.55;;;;;;;20.74;80.66;100264.44;5003683;28;20057;-81
2022/06/11 11:09:10;;;;;;;8.70;6.45;;;;;;;20.92;81.15;100241.41;5003684;28;21365;-81
2022/06/11 11:11:46;;;;;;;16.05;7.88;;;;;;;21.36;80.25;100329.25;5000840;28;20089;-81
2022/06/11 11:14:33;;;;;;;8.50;6.40;;;;;;;20.94;79.78;100260.03;5003307;28;20026;-80
2022/06/11 11:17:00;;;;;;;9.52;7.60;;;;;;;21.08;79.66;100263.78;5003510;28;20050;-80
2022/06/11 11:19:30;;;;;;;15.93;7.97;;;;;;;21.20;80.10;100299.72;5003169;28;20065;-80
2022/06/11 11:22:11;;;;;;;14.93;8.13;;;;;;;21.17;79.96;100265.16;5004835;28;20069;-81
2022/06/11 11:24:49;;;;;;;9.65;6.43;;;;;;;21.10;80.15;100252.19;5003026;28;20057;-81
2022/06/11 11:27:45;;;;;;;25.55;10.68;;;;;;;21.72;80.05;100312.44;5024264;28;20046;-81
2022/06/11 11:30:22;;;;;;;10.77;6.63;;;;;;;21.25;80.08;100252.31;5018199;28;20045;-80
2022/06/11 11:32:48;;;;;;;23.55;9.48;;;;;;;21.72;79.14;100307.09;5023885;28;20053;-81
2022/06/11 11:35:18;;;;;;;27.33;9.80;;;;;;;21.44;78.85;100267.50;5027170;28;20036;-80
2022/06/11 11:38:08;;;;;;;13.15;8.43;;;;;;;20.75;80.14;100244.00;5025188;28;20124;-81
2022/06/11 11:40:47;;;;;;;9.80;6.88;;;;;;;21.62;79.00;100325.38;5018265;28;20670;-80
2022/06/11 11:43:14;;;;;;;10.15;6.90;;;;;;;21.23;78.82;100270.22;5024135;28;20140;-80
2022/06/11 11:45:42;;;;;;;12.07;8.50;;;;;;;21.32;78.10;100244.03;5026639;28;20041;-80
2022/06/11 11:48:25;;;;;;;15.65;7.25;;;;;;;21.53;78.81;100296.44;5011256;28;20046;-81